createdAt,value
2017-11-04T00:01:35.561Z,21.23
2017-11-04T00:04:03.702Z,23.17
2017-11-04T00:06:32.236Z,22.00
2017-11-04T00:08:59.790Z,21.80
2017-11-04T00:11:27.413Z,20.80
2017-11-04T00:13:54.973Z,23.07
2017-11-04T00:16:23.408Z,21.13
2017-11-04T00:18:50.946Z,21.20
2017-11-04T00:21:18.934Z,19.13
2017-11-04T00:23:46.480Z,21.13
2017-11-04T00:26:14.037Z,19.13
2017-11-04T00:28:41.629Z,20.83
2017-11-04T00:31:09.178Z,20.50
2017-11-04T00:33:36.765Z,21.40
2017-11-04T00:36:04.309Z,22.67
2017-11-04T00:38:32.217Z,22.47
2017-11-04T00:40:59.774Z,20.70
2017-11-04T00:43:27.337Z,21.70
2017-11-04T00:45:54.910Z,21.60
2017-11-04T00:48:22.463Z,22.60
2017-11-04T00:50:50.482Z,23.43
2017-11-04T00:53:18.031Z,21.00
2017-11-04T00:55:45.582Z,20.70
2017-11-04T00:58:13.210Z,21.53
2017-11-04T01:00:40.762Z,21.00
2017-11-04T01:03:08.768Z,23.40
2017-11-04T01:05:36.320Z,22.40
2017-11-04T01:08:03.874Z,21.60
2017-11-04T01:10:31.454Z,24.70
2017-11-04T01:12:59.004Z,21.23
2017-11-04T01:15:26.874Z,22.40
2017-11-04T01:17:54.431Z,21.37
2017-11-04T01:20:21.982Z,22.00
2017-11-04T01:22:49.730Z,22.00
2017-11-04T01:25:17.286Z,21.80
2017-11-04T01:27:45.175Z,22.50
2017-11-04T01:30:12.722Z,19.80
2017-11-04T01:32:40.374Z,21.07
2017-11-04T01:35:07.952Z,21.27
2017-11-04T01:37:35.492Z,22.90
2017-11-04T01:40:03.672Z,20.57
2017-11-04T01:42:31.229Z,20.80
2017-11-04T01:44:58.785Z,19.93
2017-11-04T01:47:26.375Z,21.53
2017-11-04T01:49:53.918Z,19.37
2017-11-04T01:52:21.802Z,20.77
2017-11-04T01:54:49.343Z,21.03
2017-11-04T01:57:16.892Z,20.77
2017-11-04T01:59:44.473Z,21.73
2017-11-04T02:02:12.012Z,20.00
2017-11-04T02:04:39.851Z,18.60
2017-11-04T02:07:07.398Z,20.70
2017-11-04T02:09:35.711Z,21.07
2017-11-04T02:12:03.613Z,22.70
2017-11-04T02:14:31.141Z,22.77
2017-11-04T02:16:58.686Z,19.80
2017-11-04T02:19:26.259Z,20.67
2017-11-04T02:21:53.805Z,22.40
2017-11-04T02:24:21.705Z,20.40
2017-11-04T02:26:49.262Z,22.50
2017-11-04T02:29:16.809Z,23.17
2017-11-04T02:31:44.382Z,20.23
2017-11-04T02:34:11.927Z,23.20
2017-11-04T02:36:39.914Z,23.40
2017-11-04T02:39:07.621Z,23.20
2017-11-04T02:41:35.941Z,21.57
2017-11-04T02:44:03.515Z,22.17
2017-11-04T02:46:31.057Z,23.53
2017-11-04T02:48:58.928Z,21.57
2017-11-04T02:51:26.557Z,21.97
2017-11-04T02:53:54.101Z,24.17
2017-11-04T02:56:21.679Z,23.20
2017-11-04T02:58:49.223Z,24.27
2017-11-04T03:01:17.149Z,23.20
2017-11-04T03:03:44.686Z,24.60
2017-11-04T03:06:12.220Z,24.27
2017-11-04T03:08:39.925Z,23.77
2017-11-04T03:11:07.475Z,22.40
2017-11-04T03:13:35.445Z,24.50
2017-11-04T03:16:03.007Z,24.80
2017-11-04T03:18:30.638Z,25.70
2017-11-04T03:20:58.229Z,25.90
2017-11-04T03:23:25.767Z,26.07
2017-11-04T03:25:53.351Z,26.93
2017-11-04T03:28:20.920Z,23.80
2017-11-04T03:30:48.883Z,26.93
2017-11-04T03:33:16.432Z,24.00
2017-11-04T03:35:43.967Z,24.53
2017-11-04T03:38:11.730Z,27.17
2017-11-04T03:40:39.276Z,28.60
2017-11-04T03:43:07.193Z,26.57
2017-11-04T03:45:34.723Z,24.33
2017-11-04T03:48:02.277Z,25.70
2017-11-04T03:50:30.884Z,25.00
2017-11-04T03:52:58.653Z,26.03
2017-11-04T03:55:26.256Z,25.47
2017-11-04T03:57:53.810Z,24.90
2017-11-04T04:00:22.120Z,25.40
2017-11-04T04:02:49.701Z,25.87
2017-11-04T04:05:17.246Z,26.20
2017-11-04T04:07:45.665Z,27.20
2017-11-04T04:10:13.235Z,26.53
2017-11-04T04:12:41.391Z,26.07
2017-11-04T04:15:09.084Z,25.47
2017-11-04T04:17:37.399Z,26.17
2017-11-04T04:20:04.983Z,27.37
2017-11-04T04:22:33.357Z,26.10
2017-11-04T04:25:00.929Z,26.60
2017-11-04T04:27:29.111Z,27.20
2017-11-04T04:29:57.067Z,26.70
2017-11-04T04:32:24.626Z,26.20
2017-11-04T04:34:52.181Z,27.40
2017-11-04T04:37:19.759Z,26.50
2017-11-04T04:39:47.269Z,26.47
2017-11-04T04:42:14.836Z,26.67
2017-11-04T04:44:42.407Z,27.93
2017-11-04T04:47:10.291Z,25.70
2017-11-04T04:49:37.956Z,26.10
2017-11-04T04:52:05.502Z,25.80
2017-11-04T04:54:33.082Z,24.17
2017-11-04T04:57:00.633Z,26.10
2017-11-04T04:59:28.472Z,27.20
2017-11-04T05:01:56.034Z,27.93
2017-11-04T05:04:23.573Z,24.30
2017-11-04T05:06:51.151Z,26.73
2017-11-04T05:09:18.701Z,24.83
2017-11-04T05:11:47.332Z,27.40
2017-11-04T05:14:14.869Z,25.70
2017-11-04T05:16:43.032Z,25.07
2017-11-04T05:19:10.576Z,24.20
2017-11-04T05:21:38.321Z,25.20
2017-11-04T05:24:05.910Z,27.13
2017-11-04T05:26:33.460Z,25.47
2017-11-04T05:29:01.062Z,28.57
2017-11-04T05:31:30.106Z,27.13
2017-11-04T05:33:58.105Z,26.40
2017-11-04T05:36:25.667Z,25.93
2017-11-04T05:38:53.212Z,25.67
2017-11-04T05:41:20.804Z,26.00
2017-11-04T05:43:48.541Z,27.83
2017-11-04T05:46:16.297Z,25.93
2017-11-04T05:48:43.844Z,28.57
2017-11-04T05:51:11.784Z,27.30
2017-11-04T05:53:40.111Z,27.77
2017-11-04T05:56:07.662Z,28.83
2017-11-04T05:58:35.281Z,26.00
2017-11-04T06:01:02.822Z,28.03
2017-11-04T06:03:30.462Z,27.13
2017-11-04T06:05:58.036Z,28.50
2017-11-04T06:08:25.987Z,27.90
2017-11-04T06:10:53.534Z,29.17
2017-11-04T06:13:21.089Z,27.27
2017-11-04T06:15:48.688Z,28.33
2017-11-04T06:18:16.245Z,27.43
2017-11-04T06:20:43.833Z,26.10
2017-11-04T06:23:11.379Z,28.80
2017-11-04T06:25:40.031Z,29.87
2017-11-04T06:28:07.605Z,27.83
2017-11-04T06:30:35.199Z,28.63
2017-11-04T06:33:03.562Z,29.67
2017-11-04T06:35:31.113Z,28.33
2017-11-04T06:37:58.699Z,31.37
2017-11-04T06:40:26.245Z,29.97
2017-11-04T06:42:54.845Z,29.50
2017-11-04T06:45:22.543Z,30.60
2017-11-04T06:47:50.098Z,29.23
2017-11-04T06:50:17.861Z,31.07
2017-11-04T06:52:45.395Z,29.57
2017-11-04T06:55:13.190Z,28.37
2017-11-04T06:57:40.746Z,30.30
2017-11-04T07:00:08.723Z,30.00
2017-11-04T07:02:36.286Z,31.37
2017-11-04T07:05:03.843Z,28.73
2017-11-04T07:07:31.417Z,30.17
2017-11-04T07:09:58.976Z,30.30
2017-11-04T07:12:26.563Z,30.80
2017-11-04T07:14:54.116Z,31.47
2017-11-04T07:17:22.775Z,31.63
2017-11-04T07:19:50.317Z,29.87
2017-11-04T07:22:18.039Z,30.90
2017-11-04T07:24:45.807Z,31.70
2017-11-04T07:27:14.110Z,32.30
2017-11-04T07:29:42.049Z,31.80
2017-11-04T07:32:09.599Z,34.67
2017-11-04T07:34:38.045Z,32.10
2017-11-04T07:37:05.633Z,34.90
2017-11-04T07:39:33.172Z,29.83
2017-11-04T07:42:00.791Z,31.30
2017-11-04T07:44:28.350Z,30.27
2017-11-04T07:46:56.365Z,32.70
2017-11-04T07:49:24.718Z,32.07
2017-11-04T07:51:54.246Z,31.40
2017-11-04T07:54:21.827Z,32.33
2017-11-04T07:56:50.138Z,33.03
2017-11-04T07:59:17.725Z,31.87
2017-11-04T08:01:45.273Z,33.83
2017-11-04T08:04:13.259Z,30.97
2017-11-04T08:06:40.801Z,31.60
2017-11-04T08:09:08.379Z,32.50
2017-11-04T08:11:35.965Z,32.00
2017-11-04T08:14:03.522Z,33.50
2017-11-04T08:16:31.200Z,32.10
2017-11-04T08:18:59.492Z,31.37
2017-11-04T08:21:27.509Z,32.87
2017-11-04T08:23:55.066Z,30.03
2017-11-04T08:26:22.612Z,31.03
2017-11-04T08:28:50.203Z,30.93
2017-11-04T08:31:17.760Z,32.27
2017-11-04T08:33:48.991Z,31.40
2017-11-04T08:36:20.337Z,33.17
2017-11-04T08:38:48.298Z,33.00
2017-11-04T08:41:15.874Z,31.20
2017-11-04T08:43:43.418Z,30.60
2017-11-04T08:46:11.133Z,30.80
2017-11-04T08:48:39.473Z,31.50
2017-11-04T08:51:07.902Z,32.70
2017-11-04T08:53:35.454Z,32.00
2017-11-04T08:56:03.290Z,30.33
2017-11-04T08:58:30.866Z,31.17
2017-11-04T09:00:59.162Z,32.33
2017-11-04T09:03:26.732Z,31.00
2017-11-04T09:05:54.303Z,32.70
2017-11-04T09:08:22.300Z,32.37
2017-11-04T09:10:49.877Z,30.70
2017-11-04T09:13:17.427Z,33.53
2017-11-04T09:15:45.009Z,31.47
2017-11-04T09:18:12.579Z,32.90
2017-11-04T09:20:43.807Z,31.33
2017-11-04T09:23:11.346Z,30.87
2017-11-04T09:25:38.924Z,31.17
2017-11-04T09:28:06.472Z,32.90
2017-11-04T09:30:34.068Z,31.93
2017-11-04T09:33:02.619Z,31.70
2017-11-04T09:35:31.277Z,31.10
2017-11-04T09:37:58.824Z,30.00
2017-11-04T09:40:26.404Z,34.10
2017-11-04T09:42:54.006Z,30.17
2017-11-04T09:45:21.559Z,31.00
2017-11-04T09:47:50.207Z,29.23
2017-11-04T09:50:17.767Z,29.60
2017-11-04T09:52:45.358Z,32.53
2017-11-04T09:55:13.718Z,34.77
2017-11-04T09:57:41.302Z,33.57
2017-11-04T10:00:09.671Z,31.17
2017-11-04T10:02:37.274Z,30.67
2017-11-04T10:05:05.310Z,39.70
2017-11-04T10:07:33.630Z,36.30
2017-11-04T10:10:01.183Z,30.60
2017-11-04T10:12:28.760Z,31.43
2017-11-04T10:14:56.394Z,28.40
2017-11-04T10:17:24.040Z,28.87
2017-11-04T10:19:51.585Z,28.60
2017-11-04T10:22:19.175Z,30.17
2017-11-04T10:24:46.779Z,30.77
2017-11-04T10:27:14.843Z,31.87
2017-11-04T10:29:42.394Z,29.57
2017-11-04T10:32:10.029Z,29.77
2017-11-04T10:34:37.629Z,27.20
2017-11-04T10:37:05.184Z,27.90
2017-11-04T10:39:32.791Z,27.03
2017-11-04T10:42:00.338Z,27.53
2017-11-04T10:44:28.271Z,30.70
2017-11-04T10:46:55.830Z,26.93
2017-11-04T10:49:23.472Z,28.47
2017-11-04T10:51:51.079Z,28.20
2017-11-04T10:54:19.437Z,27.40
2017-11-04T10:56:47.036Z,28.60
2017-11-04T10:59:15.382Z,28.93
2017-11-04T11:01:43.331Z,29.67
2017-11-04T11:04:11.482Z,25.90
2017-11-04T11:06:39.084Z,28.83
2017-11-04T11:09:06.666Z,28.10
2017-11-04T11:11:34.234Z,28.87
2017-11-04T11:14:02.594Z,28.33
2017-11-04T11:16:30.172Z,27.43
2017-11-04T11:18:57.775Z,26.27
2017-11-04T11:21:25.909Z,28.90
2017-11-04T11:23:53.463Z,29.00
2017-11-04T11:26:21.057Z,28.33
2017-11-04T11:28:49.404Z,25.57
2017-11-04T11:31:16.959Z,27.23
2017-11-04T11:33:44.565Z,24.30
2017-11-04T11:36:12.110Z,26.57
2017-11-04T11:38:39.717Z,28.90
2017-11-04T11:41:07.294Z,28.57
2017-11-04T11:43:34.876Z,27.50
2017-11-04T11:46:02.461Z,28.90
2017-11-04T11:48:30.012Z,27.90
2017-11-04T11:50:57.994Z,25.40
2017-11-04T11:53:25.562Z,26.57
2017-11-04T11:55:53.166Z,28.10
2017-11-04T11:58:20.796Z,27.17
2017-11-04T12:00:48.408Z,26.63
2017-11-04T12:03:16.301Z,27.17
2017-11-04T12:05:43.886Z,25.10
2017-11-04T12:08:11.449Z,26.80
2017-11-04T12:10:39.042Z,26.97
2017-11-04T12:13:06.627Z,25.60
2017-11-04T12:15:34.615Z,26.17
2017-11-04T12:18:02.194Z,26.50
2017-11-04T12:20:29.745Z,26.70
2017-11-04T12:22:57.349Z,26.17
2017-11-04T12:25:25.047Z,28.13
2017-11-04T12:27:52.661Z,28.10
2017-11-04T12:30:20.230Z,28.40
2017-11-04T12:32:48.090Z,27.77
2017-11-04T12:35:15.769Z,26.10
2017-11-04T12:37:43.469Z,26.27
2017-11-04T12:40:11.221Z,25.53
2017-11-04T12:42:38.830Z,26.20
2017-11-04T12:45:06.755Z,25.40
2017-11-04T12:47:34.357Z,25.93
2017-11-04T12:50:02.155Z,25.77
2017-11-04T12:52:29.738Z,25.90
2017-11-04T12:54:57.304Z,25.80
2017-11-04T12:57:24.917Z,24.30
2017-11-04T12:59:52.494Z,26.70
2017-11-04T13:02:20.615Z,24.10
2017-11-04T13:04:48.175Z,24.67
2017-11-04T13:07:16.517Z,25.17
2017-11-04T13:09:44.126Z,27.83
2017-11-04T13:12:11.693Z,24.43
2017-11-04T13:14:40.566Z,25.57
2017-11-04T13:17:08.859Z,24.57
2017-11-04T13:19:37.198Z,24.90
2017-11-04T13:22:04.786Z,25.23
2017-11-04T13:24:33.118Z,23.97
2017-11-04T13:27:01.115Z,26.73
2017-11-04T13:29:28.679Z,28.20
2017-11-04T13:31:59.595Z,25.27
2017-11-04T13:34:28.749Z,25.00
2017-11-04T13:36:56.533Z,24.80
2017-11-04T13:39:25.029Z,26.33
2017-11-04T13:41:52.593Z,24.40
2017-11-04T13:44:20.210Z,24.20
2017-11-04T13:46:49.110Z,25.47
2017-11-04T13:49:16.740Z,23.10
2017-11-04T13:51:44.690Z,25.83
2017-11-04T13:54:12.288Z,23.23
2017-11-04T13:56:39.843Z,24.80
2017-11-04T13:59:09.044Z,25.10
2017-11-04T14:01:36.679Z,26.07
2017-11-04T14:04:04.296Z,24.10
2017-11-04T14:06:32.499Z,26.30
2017-11-04T14:09:01.203Z,26.17
2017-11-04T14:11:28.781Z,25.00
2017-11-04T14:13:56.352Z,24.67
2017-11-04T14:16:24.932Z,24.13
2017-11-04T14:18:52.531Z,23.30
2017-11-04T14:21:20.126Z,24.23
2017-11-04T14:23:47.744Z,24.17
2017-11-04T14:26:15.650Z,24.47
2017-11-04T14:28:43.207Z,23.80
2017-11-04T14:31:11.004Z,23.87
2017-11-04T14:33:39.423Z,21.80
2017-11-04T14:36:06.977Z,23.83
2017-11-04T14:38:35.954Z,23.47
2017-11-04T14:41:03.683Z,24.30
2017-11-04T14:43:32.013Z,23.73
2017-11-04T14:45:59.611Z,23.93
2017-11-04T14:48:27.179Z,26.27
2017-11-04T14:50:55.666Z,25.53
2017-11-04T14:53:23.248Z,23.73
2017-11-04T14:55:51.682Z,24.00
2017-11-04T14:58:19.222Z,23.67
2017-11-04T15:00:46.996Z,24.70
2017-11-04T15:03:14.567Z,23.87
2017-11-04T15:05:42.175Z,21.87
2017-11-04T15:08:09.732Z,24.20
2017-11-04T15:10:37.660Z,22.83
2017-11-04T15:13:05.224Z,24.07
2017-11-04T15:15:32.781Z,24.90
2017-11-04T15:18:01.208Z,26.60
2017-11-04T15:20:28.789Z,26.67
2017-11-04T15:22:56.409Z,25.50
2017-11-04T15:25:24.748Z,25.97
2017-11-04T15:27:53.939Z,26.00
2017-11-04T15:30:21.534Z,27.23
2017-11-04T15:32:49.093Z,25.67
2017-11-04T15:35:17.479Z,26.37
2017-11-04T15:37:45.029Z,27.73
2017-11-04T15:40:13.384Z,25.50
2017-11-04T15:42:40.946Z,26.47
2017-11-04T15:45:09.069Z,27.67
2017-11-04T15:47:36.827Z,30.07
2017-11-04T15:50:04.386Z,29.13
2017-11-04T15:52:31.982Z,26.80
2017-11-04T15:54:59.558Z,30.60
2017-11-04T15:57:27.521Z,26.67
2017-11-04T15:59:55.063Z,27.70
2017-11-04T16:02:22.634Z,28.60
2017-11-04T16:04:50.238Z,27.80
2017-11-04T16:07:17.789Z,29.20
2017-11-04T16:09:46.148Z,31.43
2017-11-04T16:12:13.698Z,28.10
2017-11-04T16:14:41.655Z,28.03
2017-11-04T16:17:09.209Z,29.40
2017-11-04T16:19:36.784Z,29.60
2017-11-04T16:22:04.384Z,29.73
2017-11-04T16:24:32.015Z,27.70
2017-11-04T16:26:59.959Z,30.10
2017-11-04T16:29:27.557Z,32.77
2017-11-04T16:31:55.146Z,28.00
2017-11-04T16:34:22.767Z,27.93
2017-11-04T16:36:50.364Z,28.37
2017-11-04T16:39:19.492Z,27.57
2017-11-04T16:41:47.094Z,27.60
2017-11-04T16:44:15.469Z,29.10
2017-11-04T16:46:43.618Z,28.20
2017-11-04T16:49:11.177Z,28.03
2017-11-04T16:51:38.755Z,31.63
2017-11-04T16:54:06.533Z,33.40
2017-11-04T16:56:34.911Z,31.00
2017-11-04T16:59:02.622Z,32.07
2017-11-04T17:01:30.212Z,30.23
2017-11-04T17:03:57.761Z,33.43
2017-11-04T17:06:25.468Z,39.93
2017-11-04T17:08:53.841Z,34.43
2017-11-04T17:11:21.883Z,32.00
2017-11-04T17:13:50.275Z,33.47
2017-11-04T17:16:18.854Z,33.07
2017-11-04T17:18:46.921Z,31.30
2017-11-04T17:21:14.613Z,33.00
2017-11-04T17:23:43.283Z,33.50
2017-11-04T17:26:11.705Z,31.60
2017-11-04T17:28:39.603Z,35.77
2017-11-04T17:31:07.165Z,34.97
2017-11-04T17:33:35.082Z,31.67
2017-11-04T17:36:02.663Z,33.37
2017-11-04T17:38:30.226Z,32.63
2017-11-04T17:40:58.057Z,33.37
2017-11-04T17:43:26.482Z,30.10
2017-11-04T17:45:56.714Z,33.60
2017-11-04T17:48:24.360Z,37.63
2017-11-04T17:50:52.345Z,35.37
2017-11-04T17:53:19.897Z,34.53
2017-11-04T17:55:47.441Z,34.87
2017-11-04T17:58:15.034Z,34.77
2017-11-04T18:00:43.326Z,33.50
2017-11-04T18:03:11.037Z,32.93
2017-11-04T18:05:38.593Z,36.47
2017-11-04T18:08:06.194Z,36.03
2017-11-04T18:10:33.758Z,34.73
2017-11-04T18:13:01.718Z,37.10
2017-11-04T18:15:29.279Z,33.10
2017-11-04T18:17:56.876Z,34.30
2017-11-04T18:20:25.229Z,33.90
2017-11-04T18:22:53.560Z,32.37
2017-11-04T18:25:21.173Z,33.27
2017-11-04T18:27:48.738Z,34.50
2017-11-04T18:30:17.382Z,33.40
2017-11-04T18:32:44.989Z,33.23
2017-11-04T18:35:12.532Z,33.67
2017-11-04T18:37:40.131Z,32.90
2017-11-04T18:40:10.525Z,33.47
2017-11-04T18:42:38.969Z,33.93
2017-11-04T18:45:06.543Z,33.80
2017-11-04T18:47:34.222Z,36.00
2017-11-04T18:52:35.971Z,34.60
2017-11-04T18:55:03.566Z,37.47
2017-11-04T18:57:31.124Z,36.83
2017-11-04T18:59:59.776Z,35.67
2017-11-04T19:02:27.322Z,33.97
2017-11-04T19:04:54.923Z,36.67
2017-11-04T19:07:23.559Z,34.00
2017-11-04T19:09:51.299Z,34.77
2017-11-04T19:12:18.839Z,34.73
2017-11-04T19:14:46.439Z,36.17
2017-11-04T19:17:13.994Z,34.60
2017-11-04T19:19:41.680Z,32.30
2017-11-04T19:22:09.244Z,34.30
2017-11-04T19:24:37.198Z,32.57
2017-11-04T19:27:04.749Z,33.60
2017-11-04T19:29:32.323Z,33.80
2017-11-04T19:31:59.987Z,34.50
2017-11-04T19:34:27.587Z,36.63
2017-11-04T19:36:55.190Z,34.93
2017-11-04T19:39:22.786Z,35.27
2017-11-04T19:41:50.381Z,37.00
2017-11-04T19:44:17.940Z,35.07
2017-11-04T19:46:46.810Z,35.13
2017-11-04T19:49:15.139Z,32.03
2017-11-04T19:51:42.706Z,33.13
2017-11-04T19:54:10.289Z,32.67
2017-11-04T19:56:37.869Z,33.00
2017-11-04T19:59:06.710Z,30.20
2017-11-04T20:01:34.267Z,32.40
2017-11-04T20:04:01.908Z,33.43
2017-11-04T20:06:29.706Z,30.57
2017-11-04T20:08:57.271Z,34.03
2017-11-04T20:11:25.246Z,30.90
2017-11-04T20:13:52.820Z,38.07
2017-11-04T20:16:20.448Z,38.70
2017-11-04T20:18:48.049Z,36.03
2017-11-04T20:21:16.410Z,35.13
2017-11-04T20:23:44.317Z,36.03
2017-11-04T20:26:11.869Z,33.77
2017-11-04T20:28:40.185Z,33.57
2017-11-04T20:31:07.790Z,34.47
2017-11-04T20:33:35.398Z,35.63
2017-11-04T20:36:02.993Z,36.87
2017-11-04T20:38:30.537Z,37.50
2017-11-04T20:40:58.428Z,34.47
2017-11-04T20:43:26.009Z,33.93
2017-11-04T20:45:54.322Z,33.03
2017-11-04T20:48:22.000Z,32.63
2017-11-04T20:50:49.561Z,32.77
2017-11-04T20:53:17.215Z,35.50
2017-11-04T20:55:44.770Z,33.27
2017-11-04T20:58:12.653Z,33.43
2017-11-04T21:00:40.190Z,32.60
2017-11-04T21:03:07.771Z,33.00
2017-11-04T21:05:35.369Z,32.03
2017-11-04T21:08:02.993Z,32.70
2017-11-04T21:10:30.965Z,31.90
2017-11-04T21:12:58.571Z,34.30
2017-11-04T21:15:26.335Z,31.47
2017-11-04T21:17:53.979Z,29.77
2017-11-04T21:20:22.284Z,28.27
2017-11-04T21:22:50.300Z,33.00
2017-11-04T21:25:17.849Z,28.37
2017-11-04T21:27:45.389Z,32.00
2017-11-04T21:30:12.986Z,30.37
2017-11-04T21:32:40.610Z,30.43
2017-11-04T21:35:08.468Z,32.13
2017-11-04T21:37:36.068Z,30.40
2017-11-04T21:40:03.698Z,29.57
2017-11-04T21:42:31.283Z,31.10
2017-11-04T21:44:58.837Z,32.13
2017-11-04T21:47:26.752Z,31.90
2017-11-04T21:49:55.064Z,30.97
2017-11-04T21:52:22.638Z,29.80
2017-11-04T21:54:50.229Z,30.27
2017-11-04T21:57:17.769Z,32.00
2017-11-04T21:59:45.355Z,33.67
2017-11-04T22:02:12.941Z,30.07
2017-11-04T22:04:40.979Z,33.80
2017-11-04T22:07:08.546Z,32.07
2017-11-04T22:09:36.118Z,32.77
2017-11-04T22:12:04.495Z,31.77
2017-11-04T22:14:32.197Z,34.30
2017-11-04T22:16:59.802Z,32.77
2017-11-04T22:19:28.909Z,34.83
2017-11-04T22:21:56.842Z,36.40
2017-11-04T22:24:24.397Z,37.53
2017-11-04T22:26:51.938Z,35.67
2017-11-04T22:29:19.531Z,33.70
2017-11-04T22:31:47.111Z,37.80
2017-11-04T22:34:15.486Z,36.17
2017-11-04T22:36:43.059Z,35.40
2017-11-04T22:39:11.746Z,36.03
2017-11-04T22:41:40.085Z,34.57
2017-11-04T22:44:07.813Z,36.33
2017-11-04T22:46:35.405Z,36.97
2017-11-04T22:49:02.990Z,38.37
2017-11-04T22:51:31.363Z,35.10
2017-11-04T22:53:58.908Z,37.73
2017-11-04T22:56:26.827Z,38.60
2017-11-04T22:58:54.388Z,37.87
2017-11-04T23:01:21.934Z,36.07
2017-11-04T23:03:50.301Z,35.97
2017-11-04T23:06:17.907Z,38.97
2017-11-04T23:08:46.007Z,37.13
2017-11-04T23:11:13.561Z,38.20
2017-11-04T23:13:41.109Z,41.40
2017-11-04T23:16:08.790Z,38.10
2017-11-04T23:18:36.344Z,39.30
2017-11-04T23:21:03.983Z,38.93
2017-11-04T23:23:31.508Z,39.30
2017-11-04T23:25:59.442Z,39.50
2017-11-04T23:28:26.994Z,36.83
2017-11-04T23:30:54.566Z,37.90
2017-11-04T23:33:22.150Z,37.67
2017-11-04T23:35:49.743Z,37.47
2017-11-04T23:38:17.351Z,36.70
2017-11-04T23:40:45.038Z,38.37
2017-11-04T23:43:13.068Z,39.80
2017-11-04T23:45:40.624Z,35.20
2017-11-04T23:48:08.192Z,38.33
2017-11-04T23:50:35.766Z,37.70
2017-11-04T23:53:03.306Z,37.33
2017-11-04T23:55:30.889Z,37.83
2017-11-04T23:57:58.434Z,37.40
